sensor_id;sensor_type;location;lat;lon;timestamp;P1;durP1;ratioP1;P2;durP2;ratioP2
18738;SDS011;9498;51.862;19.460;2022-09-12T00:01:17;13.70;;;5.10;;
18738;SDS011;9498;51.862;19.460;2022-09-12T00:03:45;9.83;;;4.60;;
18738;SDS011;9498;51.862;19.460;2022-09-12T00:06:15;13.30;;;5.77;;
18738;SDS011;9498;51.862;19.460;2022-09-12T00:08:42;9.90;;;4.80;;
18738;SDS011;9498;51.862;19.460;2022-09-12T00:11:10;10.63;;;5.43;;
18738;SDS011;9498;51.862;19.460;2022-09-12T00:13:38;9.43;;;5.00;;
18738;SDS011;9498;51.862;19.460;2022-09-12T00:16:06;9.97;;;5.13;;
18738;SDS011;9498;51.862;19.460;2022-09-12T00:18:34;9.90;;;4.77;;
18738;SDS011;9498;51.862;19.460;2022-09-12T00:21:02;12.37;;;4.93;;
18738;SDS011;9498;51.862;19.460;2022-09-12T00:23:30;9.20;;;5.17;;
18738;SDS011;9498;51.862;19.460;2022-09-12T00:25:57;10.37;;;5.10;;
18738;SDS011;9498;51.862;19.460;2022-09-12T00:28:24;14.70;;;5.20;;
18738;SDS011;9498;51.862;19.460;2022-09-12T00:30:52;9.53;;;5.13;;
18738;SDS011;9498;51.862;19.460;2022-09-12T00:33:19;13.70;;;5.43;;
18738;SDS011;9498;51.862;19.460;2022-09-12T00:35:48;10.27;;;4.87;;
18738;SDS011;9498;51.862;19.460;2022-09-12T00:38:17;12.13;;;5.93;;
18738;SDS011;9498;51.862;19.460;2022-09-12T00:40:45;11.63;;;5.37;;
18738;SDS011;9498;51.862;19.460;2022-09-12T00:43:12;9.07;;;4.97;;
18738;SDS011;9498;51.862;19.460;2022-09-12T00:45:40;11.30;;;5.03;;
18738;SDS011;9498;51.862;19.460;2022-09-12T00:48:13;12.20;;;5.13;;
18738;SDS011;9498;51.862;19.460;2022-09-12T00:50:43;11.40;;;5.30;;
18738;SDS011;9498;51.862;19.460;2022-09-12T00:53:12;11.90;;;4.90;;
18738;SDS011;9498;51.862;19.460;2022-09-12T00:55:40;10.03;;;5.00;;
18738;SDS011;9498;51.862;19.460;2022-09-12T00:58:08;9.17;;;5.30;;
18738;SDS011;9498;51.862;19.460;2022-09-12T01:00:36;11.17;;;5.20;;
18738;SDS011;9498;51.862;19.460;2022-09-12T01:03:04;13.10;;;5.00;;
18738;SDS011;9498;51.862;19.460;2022-09-12T01:05:33;9.23;;;5.30;;
18738;SDS011;9498;51.862;19.460;2022-09-12T01:08:01;12.13;;;4.90;;
18738;SDS011;9498;51.862;19.460;2022-09-12T01:10:30;8.90;;;4.87;;
18738;SDS011;9498;51.862;19.460;2022-09-12T01:12:59;8.37;;;4.63;;
18738;SDS011;9498;51.862;19.460;2022-09-12T01:15:26;11.83;;;5.43;;
18738;SDS011;9498;51.862;19.460;2022-09-12T01:17:57;10.90;;;5.47;;
18738;SDS011;9498;51.862;19.460;2022-09-12T01:20:45;13.27;;;5.67;;
18738;SDS011;9498;51.862;19.460;2022-09-12T01:26:34;11.07;;;5.80;;
18738;SDS011;9498;51.862;19.460;2022-09-12T01:29:12;10.40;;;5.30;;
18738;SDS011;9498;51.862;19.460;2022-09-12T01:31:43;9.73;;;5.50;;
18738;SDS011;9498;51.862;19.460;2022-09-12T01:34:15;10.67;;;6.23;;
18738;SDS011;9498;51.862;19.460;2022-09-12T01:36:46;11.17;;;5.93;;
18738;SDS011;9498;51.862;19.460;2022-09-12T01:39:20;13.50;;;6.20;;
18738;SDS011;9498;51.862;19.460;2022-09-12T01:41:51;12.37;;;6.23;;
18738;SDS011;9498;51.862;19.460;2022-09-12T01:44:22;14.00;;;6.37;;
18738;SDS011;9498;51.862;19.460;2022-09-12T01:46:53;16.00;;;6.63;;
18738;SDS011;9498;51.862;19.460;2022-09-12T01:49:23;15.10;;;6.77;;
18738;SDS011;9498;51.862;19.460;2022-09-12T01:51:54;11.37;;;6.43;;
18738;SDS011;9498;51.862;19.460;2022-09-12T01:54:24;11.73;;;6.53;;
18738;SDS011;9498;51.862;19.460;2022-09-12T01:56:53;11.33;;;6.37;;
18738;SDS011;9498;51.862;19.460;2022-09-12T01:59:23;15.60;;;7.57;;
18738;SDS011;9498;51.862;19.460;2022-09-12T02:01:52;21.40;;;7.53;;
18738;SDS011;9498;51.862;19.460;2022-09-12T02:16:56;14.23;;;7.57;;
18738;SDS011;9498;51.862;19.460;2022-09-12T02:19:26;14.00;;;7.80;;
18738;SDS011;9498;51.862;19.460;2022-09-12T02:21:55;20.10;;;8.23;;
18738;SDS011;9498;51.862;19.460;2022-09-12T02:24:26;20.10;;;7.97;;
18738;SDS011;9498;51.862;19.460;2022-09-12T02:26:56;15.80;;;8.03;;
18738;SDS011;9498;51.862;19.460;2022-09-12T02:29:25;12.53;;;7.17;;
18738;SDS011;9498;51.862;19.460;2022-09-12T02:31:53;14.43;;;8.40;;
18738;SDS011;9498;51.862;19.460;2022-09-12T02:34:30;12.77;;;7.93;;
18738;SDS011;9498;51.862;19.460;2022-09-12T02:37:01;12.60;;;7.70;;
18738;SDS011;9498;51.862;19.460;2022-09-12T02:39:30;17.40;;;8.90;;
18738;SDS011;9498;51.862;19.460;2022-09-12T02:41:58;15.53;;;8.57;;
18738;SDS011;9498;51.862;19.460;2022-09-12T02:44:26;18.97;;;8.03;;
18738;SDS011;9498;51.862;19.460;2022-09-12T02:46:55;17.70;;;8.17;;
18738;SDS011;9498;51.862;19.460;2022-09-12T02:49:24;14.93;;;7.87;;
18738;SDS011;9498;51.862;19.460;2022-09-12T02:51:52;16.07;;;7.80;;
18738;SDS011;9498;51.862;19.460;2022-09-12T02:54:19;14.33;;;7.30;;
18738;SDS011;9498;51.862;19.460;2022-09-12T02:56:47;18.57;;;8.57;;
18738;SDS011;9498;51.862;19.460;2022-09-12T02:59:14;17.17;;;8.13;;
18738;SDS011;9498;51.862;19.460;2022-09-12T03:01:49;15.60;;;7.63;;
18738;SDS011;9498;51.862;19.460;2022-09-12T03:07:28;14.07;;;7.67;;
18738;SDS011;9498;51.862;19.460;2022-09-12T03:09:58;13.77;;;7.50;;
18738;SDS011;9498;51.862;19.460;2022-09-12T03:12:33;15.23;;;8.20;;
18738;SDS011;9498;51.862;19.460;2022-09-12T03:15:06;16.67;;;8.37;;
18738;SDS011;9498;51.862;19.460;2022-09-12T03:17:41;15.40;;;8.27;;
18738;SDS011;9498;51.862;19.460;2022-09-12T03:20:10;19.77;;;8.40;;
18738;SDS011;9498;51.862;19.460;2022-09-12T03:22:41;13.93;;;7.73;;
18738;SDS011;9498;51.862;19.460;2022-09-12T03:25:13;13.37;;;7.53;;
18738;SDS011;9498;51.862;19.460;2022-09-12T03:27:42;14.27;;;7.27;;
18738;SDS011;9498;51.862;19.460;2022-09-12T03:30:12;12.13;;;6.57;;
18738;SDS011;9498;51.862;19.460;2022-09-12T03:32:39;15.53;;;6.67;;
18738;SDS011;9498;51.862;19.460;2022-09-12T03:35:07;12.57;;;7.10;;
18738;SDS011;9498;51.862;19.460;2022-09-12T03:37:34;14.50;;;7.47;;
18738;SDS011;9498;51.862;19.460;2022-09-12T03:40:03;14.77;;;7.33;;
18738;SDS011;9498;51.862;19.460;2022-09-12T03:42:31;16.73;;;7.30;;
18738;SDS011;9498;51.862;19.460;2022-09-12T03:44:58;18.10;;;7.93;;
18738;SDS011;9498;51.862;19.460;2022-09-12T03:47:25;16.87;;;7.43;;
18738;SDS011;9498;51.862;19.460;2022-09-12T03:49:53;11.23;;;7.00;;
18738;SDS011;9498;51.862;19.460;2022-09-12T03:52:20;13.03;;;7.27;;
18738;SDS011;9498;51.862;19.460;2022-09-12T03:54:47;11.07;;;7.20;;
18738;SDS011;9498;51.862;19.460;2022-09-12T03:57:16;13.10;;;7.40;;
18738;SDS011;9498;51.862;19.460;2022-09-12T03:59:43;12.80;;;7.30;;
18738;SDS011;9498;51.862;19.460;2022-09-12T04:02:10;17.50;;;7.70;;
18738;SDS011;9498;51.862;19.460;2022-09-12T04:04:39;12.47;;;7.63;;
18738;SDS011;9498;51.862;19.460;2022-09-12T04:07:08;16.77;;;7.20;;
18738;SDS011;9498;51.862;19.460;2022-09-12T04:09:35;20.37;;;8.33;;
18738;SDS011;9498;51.862;19.460;2022-09-12T04:12:02;14.70;;;7.23;;
18738;SDS011;9498;51.862;19.460;2022-09-12T04:14:31;18.40;;;8.03;;
18738;SDS011;9498;51.862;19.460;2022-09-12T04:16:58;13.47;;;7.60;;
18738;SDS011;9498;51.862;19.460;2022-09-12T04:19:26;14.17;;;7.97;;
18738;SDS011;9498;51.862;19.460;2022-09-12T04:21:53;12.57;;;7.90;;
18738;SDS011;9498;51.862;19.460;2022-09-12T04:24:20;18.27;;;8.40;;
18738;SDS011;9498;51.862;19.460;2022-09-12T04:26:47;18.20;;;8.87;;
18738;SDS011;9498;51.862;19.460;2022-09-12T04:29:15;17.37;;;8.83;;
18738;SDS011;9498;51.862;19.460;2022-09-12T04:31:43;19.03;;;8.70;;
18738;SDS011;9498;51.862;19.460;2022-09-12T04:34:10;15.40;;;8.53;;
18738;SDS011;9498;51.862;19.460;2022-09-12T04:36:39;14.97;;;8.90;;
18738;SDS011;9498;51.862;19.460;2022-09-12T04:39:06;17.07;;;9.77;;
18738;SDS011;9498;51.862;19.460;2022-09-12T04:41:34;14.93;;;8.50;;
18738;SDS011;9498;51.862;19.460;2022-09-12T04:44:03;21.17;;;9.17;;
18738;SDS011;9498;51.862;19.460;2022-09-12T04:46:31;17.93;;;8.37;;
18738;SDS011;9498;51.862;19.460;2022-09-12T04:49:00;15.93;;;9.53;;
18738;SDS011;9498;51.862;19.460;2022-09-12T04:51:27;22.93;;;8.87;;
18738;SDS011;9498;51.862;19.460;2022-09-12T04:53:56;14.87;;;8.80;;
18738;SDS011;9498;51.862;19.460;2022-09-12T04:56:24;15.00;;;9.20;;
18738;SDS011;9498;51.862;19.460;2022-09-12T04:58:52;21.87;;;9.47;;
18738;SDS011;9498;51.862;19.460;2022-09-12T05:01:20;21.60;;;9.47;;
18738;SDS011;9498;51.862;19.460;2022-09-12T05:03:47;19.73;;;9.90;;
18738;SDS011;9498;51.862;19.460;2022-09-12T05:06:17;21.87;;;10.47;;
18738;SDS011;9498;51.862;19.460;2022-09-12T05:08:45;16.33;;;9.40;;
18738;SDS011;9498;51.862;19.460;2022-09-12T05:11:13;19.60;;;9.50;;
18738;SDS011;9498;51.862;19.460;2022-09-12T05:13:41;17.90;;;9.13;;
18738;SDS011;9498;51.862;19.460;2022-09-12T05:16:09;18.53;;;8.53;;
18738;SDS011;9498;51.862;19.460;2022-09-12T05:18:36;16.27;;;8.30;;
18738;SDS011;9498;51.862;19.460;2022-09-12T05:21:04;17.47;;;8.50;;
18738;SDS011;9498;51.862;19.460;2022-09-12T05:23:33;18.13;;;7.87;;
18738;SDS011;9498;51.862;19.460;2022-09-12T05:26:01;18.90;;;6.80;;
18738;SDS011;9498;51.862;19.460;2022-09-12T05:28:30;14.20;;;8.30;;
18738;SDS011;9498;51.862;19.460;2022-09-12T05:30:59;17.97;;;8.03;;
18738;SDS011;9498;51.862;19.460;2022-09-12T05:33:27;13.20;;;7.37;;
18738;SDS011;9498;51.862;19.460;2022-09-12T05:35:54;21.50;;;8.03;;
18738;SDS011;9498;51.862;19.460;2022-09-12T05:38:21;21.63;;;8.07;;
18738;SDS011;9498;51.862;19.460;2022-09-12T05:40:50;14.67;;;7.47;;
18738;SDS011;9498;51.862;19.460;2022-09-12T05:43:18;15.87;;;8.63;;
18738;SDS011;9498;51.862;19.460;2022-09-12T05:45:45;16.97;;;8.23;;
18738;SDS011;9498;51.862;19.460;2022-09-12T05:48:12;13.03;;;7.67;;
18738;SDS011;9498;51.862;19.460;2022-09-12T05:50:40;14.70;;;7.10;;
18738;SDS011;9498;51.862;19.460;2022-09-12T05:53:07;13.87;;;7.10;;
18738;SDS011;9498;51.862;19.460;2022-09-12T05:55:35;13.33;;;6.90;;
18738;SDS011;9498;51.862;19.460;2022-09-12T05:58:03;18.07;;;7.43;;
18738;SDS011;9498;51.862;19.460;2022-09-12T06:00:31;15.27;;;8.00;;
18738;SDS011;9498;51.862;19.460;2022-09-12T06:02:58;14.27;;;6.93;;
18738;SDS011;9498;51.862;19.460;2022-09-12T06:05:25;11.70;;;6.13;;
18738;SDS011;9498;51.862;19.460;2022-09-12T06:07:53;15.10;;;7.10;;
18738;SDS011;9498;51.862;19.460;2022-09-12T06:10:20;15.77;;;6.13;;
18738;SDS011;9498;51.862;19.460;2022-09-12T06:12:48;11.23;;;6.20;;
18738;SDS011;9498;51.862;19.460;2022-09-12T06:15:16;17.03;;;6.20;;
18738;SDS011;9498;51.862;19.460;2022-09-12T06:17:43;8.73;;;5.53;;
18738;SDS011;9498;51.862;19.460;2022-09-12T06:20:11;15.13;;;5.73;;
18738;SDS011;9498;51.862;19.460;2022-09-12T06:22:38;22.33;;;6.17;;
18738;SDS011;9498;51.862;19.460;2022-09-12T06:25:06;13.67;;;5.80;;
18738;SDS011;9498;51.862;19.460;2022-09-12T06:27:34;11.77;;;5.73;;
18738;SDS011;9498;51.862;19.460;2022-09-12T06:30:01;7.90;;;5.20;;
18738;SDS011;9498;51.862;19.460;2022-09-12T06:32:30;12.43;;;5.77;;
18738;SDS011;9498;51.862;19.460;2022-09-12T06:34:58;14.50;;;5.80;;
18738;SDS011;9498;51.862;19.460;2022-09-12T06:37:25;11.80;;;5.50;;
18738;SDS011;9498;51.862;19.460;2022-09-12T06:39:53;13.10;;;5.30;;
18738;SDS011;9498;51.862;19.460;2022-09-12T06:42:20;8.03;;;5.50;;
18738;SDS011;9498;51.862;19.460;2022-09-12T06:44:47;16.03;;;5.37;;
18738;SDS011;9498;51.862;19.460;2022-09-12T06:47:16;16.23;;;5.60;;
18738;SDS011;9498;51.862;19.460;2022-09-12T06:49:44;11.93;;;5.27;;
18738;SDS011;9498;51.862;19.460;2022-09-12T06:52:12;11.53;;;5.40;;
18738;SDS011;9498;51.862;19.460;2022-09-12T06:54:39;12.70;;;6.10;;
18738;SDS011;9498;51.862;19.460;2022-09-12T06:57:06;12.30;;;5.00;;
18738;SDS011;9498;51.862;19.460;2022-09-12T06:59:33;11.23;;;5.57;;
18738;SDS011;9498;51.862;19.460;2022-09-12T07:02:00;9.90;;;5.30;;
18738;SDS011;9498;51.862;19.460;2022-09-12T07:04:28;13.43;;;5.17;;
18738;SDS011;9498;51.862;19.460;2022-09-12T07:06:59;13.13;;;5.53;;
18738;SDS011;9498;51.862;19.460;2022-09-12T07:09:26;7.23;;;4.60;;
18738;SDS011;9498;51.862;19.460;2022-09-12T07:11:54;14.07;;;5.10;;
18738;SDS011;9498;51.862;19.460;2022-09-12T07:14:22;8.90;;;4.67;;
18738;SDS011;9498;51.862;19.460;2022-09-12T07:16:50;13.80;;;5.20;;
18738;SDS011;9498;51.862;19.460;2022-09-12T07:19:17;9.30;;;4.80;;
18738;SDS011;9498;51.862;19.460;2022-09-12T07:21:44;8.83;;;4.80;;
18738;SDS011;9498;51.862;19.460;2022-09-12T07:24:13;8.43;;;4.13;;
18738;SDS011;9498;51.862;19.460;2022-09-12T07:26:40;12.13;;;4.20;;
18738;SDS011;9498;51.862;19.460;2022-09-12T07:31:38;8.47;;;3.80;;
18738;SDS011;9498;51.862;19.460;2022-09-12T07:34:05;9.60;;;3.90;;
18738;SDS011;9498;51.862;19.460;2022-09-12T07:36:33;6.87;;;3.70;;
18738;SDS011;9498;51.862;19.460;2022-09-12T07:39:00;10.47;;;3.90;;
18738;SDS011;9498;51.862;19.460;2022-09-12T07:41:30;9.17;;;3.70;;
18738;SDS011;9498;51.862;19.460;2022-09-12T07:43:58;9.37;;;3.50;;
18738;SDS011;9498;51.862;19.460;2022-09-12T07:46:26;5.63;;;3.07;;
18738;SDS011;9498;51.862;19.460;2022-09-12T07:48:54;6.97;;;3.27;;
18738;SDS011;9498;51.862;19.460;2022-09-12T07:51:22;9.90;;;3.37;;
18738;SDS011;9498;51.862;19.460;2022-09-12T07:53:49;6.97;;;3.07;;
18738;SDS011;9498;51.862;19.460;2022-09-12T07:56:17;9.40;;;2.80;;
18738;SDS011;9498;51.862;19.460;2022-09-12T07:58:47;4.40;;;2.80;;
18738;SDS011;9498;51.862;19.460;2022-09-12T08:01:15;6.37;;;2.83;;
18738;SDS011;9498;51.862;19.460;2022-09-12T08:03:44;4.80;;;2.60;;
18738;SDS011;9498;51.862;19.460;2022-09-12T08:06:13;6.67;;;3.00;;
18738;SDS011;9498;51.862;19.460;2022-09-12T08:08:41;8.47;;;2.60;;
18738;SDS011;9498;51.862;19.460;2022-09-12T08:11:09;7.00;;;2.10;;
18738;SDS011;9498;51.862;19.460;2022-09-12T08:13:37;4.50;;;2.30;;
18738;SDS011;9498;51.862;19.460;2022-09-12T08:16:06;2.80;;;2.10;;
18738;SDS011;9498;51.862;19.460;2022-09-12T08:18:34;8.83;;;2.30;;
18738;SDS011;9498;51.862;19.460;2022-09-12T08:21:02;9.37;;;2.27;;
18738;SDS011;9498;51.862;19.460;2022-09-12T08:23:30;5.47;;;2.47;;
18738;SDS011;9498;51.862;19.460;2022-09-12T08:25:58;8.03;;;2.40;;
18738;SDS011;9498;51.862;19.460;2022-09-12T08:28:27;5.70;;;2.23;;
18738;SDS011;9498;51.862;19.460;2022-09-12T08:30:58;4.83;;;2.40;;
18738;SDS011;9498;51.862;19.460;2022-09-12T08:33:27;6.90;;;2.30;;
18738;SDS011;9498;51.862;19.460;2022-09-12T08:36:07;6.40;;;2.57;;
18738;SDS011;9498;51.862;19.460;2022-09-12T08:38:34;5.83;;;2.03;;
18738;SDS011;9498;51.862;19.460;2022-09-12T08:41:03;2.97;;;1.90;;
18738;SDS011;9498;51.862;19.460;2022-09-12T08:43:38;3.10;;;1.70;;
18738;SDS011;9498;51.862;19.460;2022-09-12T08:46:09;4.03;;;2.20;;
18738;SDS011;9498;51.862;19.460;2022-09-12T08:48:39;2.83;;;1.90;;
18738;SDS011;9498;51.862;19.460;2022-09-12T08:51:07;2.97;;;1.90;;
18738;SDS011;9498;51.862;19.460;2022-09-12T08:53:36;5.27;;;1.67;;
18738;SDS011;9498;51.862;19.460;2022-09-12T08:56:03;3.50;;;1.87;;
18738;SDS011;9498;51.862;19.460;2022-09-12T08:58:34;4.83;;;1.80;;
18738;SDS011;9498;51.862;19.460;2022-09-12T09:01:04;2.23;;;1.80;;
18738;SDS011;9498;51.862;19.460;2022-09-12T09:03:42;4.80;;;1.80;;
18738;SDS011;9498;51.862;19.460;2022-09-12T09:06:13;3.53;;;1.90;;
18738;SDS011;9498;51.862;19.460;2022-09-12T09:08:45;6.73;;;1.87;;
18738;SDS011;9498;51.862;19.460;2022-09-12T09:11:21;7.27;;;2.10;;
18738;SDS011;9498;51.862;19.460;2022-09-12T09:13:52;3.30;;;1.90;;
18738;SDS011;9498;51.862;19.460;2022-09-12T09:16:41;3.63;;;1.60;;
18738;SDS011;9498;51.862;19.460;2022-09-12T09:19:11;3.70;;;2.30;;
18738;SDS011;9498;51.862;19.460;2022-09-12T09:21:41;5.60;;;1.60;;
18738;SDS011;9498;51.862;19.460;2022-09-12T09:24:10;6.07;;;1.97;;
18738;SDS011;9498;51.862;19.460;2022-09-12T09:26:40;5.57;;;1.87;;
18738;SDS011;9498;51.862;19.460;2022-09-12T09:29:12;4.37;;;1.77;;
18738;SDS011;9498;51.862;19.460;2022-09-12T09:31:40;5.73;;;2.00;;
18738;SDS011;9498;51.862;19.460;2022-09-12T09:34:11;5.83;;;2.20;;
18738;SDS011;9498;51.862;19.460;2022-09-12T09:36:43;5.07;;;1.90;;
18738;SDS011;9498;51.862;19.460;2022-09-12T09:39:15;8.13;;;2.20;;
18738;SDS011;9498;51.862;19.460;2022-09-12T09:41:48;4.23;;;1.87;;
18738;SDS011;9498;51.862;19.460;2022-09-12T09:44:17;4.53;;;1.80;;
18738;SDS011;9498;51.862;19.460;2022-09-12T09:46:53;5.20;;;1.90;;
18738;SDS011;9498;51.862;19.460;2022-09-12T09:49:21;2.50;;;2.10;;
18738;SDS011;9498;51.862;19.460;2022-09-12T09:51:49;6.10;;;2.10;;
18738;SDS011;9498;51.862;19.460;2022-09-12T09:54:17;3.97;;;1.85;;
18738;SDS011;9498;51.862;19.460;2022-09-12T09:56:46;5.93;;;1.87;;
18738;SDS011;9498;51.862;19.460;2022-09-12T09:59:14;4.77;;;1.90;;
18738;SDS011;9498;51.862;19.460;2022-09-12T10:01:46;3.30;;;1.60;;
18738;SDS011;9498;51.862;19.460;2022-09-12T10:04:16;5.30;;;1.93;;
18738;SDS011;9498;51.862;19.460;2022-09-12T10:06:45;4.63;;;1.93;;
18738;SDS011;9498;51.862;19.460;2022-09-12T10:09:20;6.00;;;1.93;;
18738;SDS011;9498;51.862;19.460;2022-09-12T10:11:48;3.53;;;1.90;;
18738;SDS011;9498;51.862;19.460;2022-09-12T10:14:26;4.33;;;1.90;;
18738;SDS011;9498;51.862;19.460;2022-09-12T10:16:53;4.20;;;1.73;;
18738;SDS011;9498;51.862;19.460;2022-09-12T10:19:22;5.40;;;2.00;;
18738;SDS011;9498;51.862;19.460;2022-09-12T10:21:51;3.83;;;1.95;;
18738;SDS011;9498;51.862;19.460;2022-09-12T10:24:20;2.70;;;1.67;;
18738;SDS011;9498;51.862;19.460;2022-09-12T10:26:49;3.87;;;1.60;;
18738;SDS011;9498;51.862;19.460;2022-09-12T10:29:17;8.60;;;1.67;;
18738;SDS011;9498;51.862;19.460;2022-09-12T10:31:48;2.33;;;1.47;;
18738;SDS011;9498;51.862;19.460;2022-09-12T10:37:03;4.80;;;2.00;;
18738;SDS011;9498;51.862;19.460;2022-09-12T10:39:31;8.90;;;2.13;;
18738;SDS011;9498;51.862;19.460;2022-09-12T10:42:00;3.10;;;1.70;;
18738;SDS011;9498;51.862;19.460;2022-09-12T10:44:27;3.93;;;1.73;;
18738;SDS011;9498;51.862;19.460;2022-09-12T10:46:56;4.33;;;1.50;;
18738;SDS011;9498;51.862;19.460;2022-09-12T10:49:25;3.17;;;1.52;;
18738;SDS011;9498;51.862;19.460;2022-09-12T10:51:52;3.30;;;1.60;;
18738;SDS011;9498;51.862;19.460;2022-09-12T10:54:22;2.47;;;1.70;;
18738;SDS011;9498;51.862;19.460;2022-09-12T10:59:36;3.63;;;1.40;;
18738;SDS011;9498;51.862;19.460;2022-09-12T11:02:11;3.20;;;1.50;;
18738;SDS011;9498;51.862;19.460;2022-09-12T11:04:43;2.77;;;1.53;;
18738;SDS011;9498;51.862;19.460;2022-09-12T11:07:16;4.43;;;1.40;;
18738;SDS011;9498;51.862;19.460;2022-09-12T11:09:47;1.53;;;1.30;;
18738;SDS011;9498;51.862;19.460;2022-09-12T11:12:19;2.90;;;1.33;;
18738;SDS011;9498;51.862;19.460;2022-09-12T11:14:54;3.20;;;1.67;;
18738;SDS011;9498;51.862;19.460;2022-09-12T11:17:24;3.22;;;1.50;;
18738;SDS011;9498;51.862;19.460;2022-09-12T11:20:01;5.47;;;1.57;;
18738;SDS011;9498;51.862;19.460;2022-09-12T11:22:33;5.00;;;1.40;;
18738;SDS011;9498;51.862;19.460;2022-09-12T11:25:15;2.60;;;1.50;;
18738;SDS011;9498;51.862;19.460;2022-09-12T11:27:49;2.50;;;1.70;;
18738;SDS011;9498;51.862;19.460;2022-09-12T11:30:20;5.63;;;2.23;;
18738;SDS011;9498;51.862;19.460;2022-09-12T11:35:31;2.97;;;1.33;;
18738;SDS011;9498;51.862;19.460;2022-09-12T11:38:03;3.90;;;1.63;;
18738;SDS011;9498;51.862;19.460;2022-09-12T11:40:36;2.87;;;1.73;;
18738;SDS011;9498;51.862;19.460;2022-09-12T11:43:06;2.80;;;1.63;;
18738;SDS011;9498;51.862;19.460;2022-09-12T11:45:39;2.23;;;1.70;;
18738;SDS011;9498;51.862;19.460;2022-09-12T11:48:10;5.68;;;1.55;;
18738;SDS011;9498;51.862;19.460;2022-09-12T11:50:38;2.27;;;1.47;;
18738;SDS011;9498;51.862;19.460;2022-09-12T11:53:11;4.47;;;1.60;;
18738;SDS011;9498;51.862;19.460;2022-09-12T11:55:46;2.77;;;1.57;;
18738;SDS011;9498;51.862;19.460;2022-09-12T11:58:15;5.90;;;1.80;;
18738;SDS011;9498;51.862;19.460;2022-09-12T12:00:44;3.60;;;1.60;;
18738;SDS011;9498;51.862;19.460;2022-09-12T12:03:14;3.40;;;1.70;;
18738;SDS011;9498;51.862;19.460;2022-09-12T12:05:43;4.40;;;1.60;;
18738;SDS011;9498;51.862;19.460;2022-09-12T12:08:16;3.70;;;1.50;;
18738;SDS011;9498;51.862;19.460;2022-09-12T12:10:47;4.40;;;1.63;;
18738;SDS011;9498;51.862;19.460;2022-09-12T12:13:18;3.83;;;1.50;;
18738;SDS011;9498;51.862;19.460;2022-09-12T12:15:47;2.43;;;1.57;;
18738;SDS011;9498;51.862;19.460;2022-09-12T12:18:15;4.07;;;1.73;;
18738;SDS011;9498;51.862;19.460;2022-09-12T12:20:43;3.37;;;1.70;;
18738;SDS011;9498;51.862;19.460;2022-09-12T12:23:20;5.07;;;1.93;;
18738;SDS011;9498;51.862;19.460;2022-09-12T12:25:52;3.77;;;1.83;;
18738;SDS011;9498;51.862;19.460;2022-09-12T12:31:21;2.23;;;1.40;;
18738;SDS011;9498;51.862;19.460;2022-09-12T12:33:53;4.23;;;1.50;;
18738;SDS011;9498;51.862;19.460;2022-09-12T12:36:28;2.67;;;1.55;;
18738;SDS011;9498;51.862;19.460;2022-09-12T12:38:58;3.63;;;1.53;;
18738;SDS011;9498;51.862;19.460;2022-09-12T12:41:45;6.67;;;1.70;;
18738;SDS011;9498;51.862;19.460;2022-09-12T12:47:07;4.13;;;1.73;;
18738;SDS011;9498;51.862;19.460;2022-09-12T12:49:39;6.87;;;2.10;;
18738;SDS011;9498;51.862;19.460;2022-09-12T12:52:13;3.43;;;1.87;;
18738;SDS011;9498;51.862;19.460;2022-09-12T12:57:22;3.70;;;1.70;;
18738;SDS011;9498;51.862;19.460;2022-09-12T12:59:51;3.77;;;1.73;;
18738;SDS011;9498;51.862;19.460;2022-09-12T13:02:20;3.33;;;1.97;;
18738;SDS011;9498;51.862;19.460;2022-09-12T13:04:48;4.50;;;1.60;;
18738;SDS011;9498;51.862;19.460;2022-09-12T13:07:20;3.47;;;1.80;;
18738;SDS011;9498;51.862;19.460;2022-09-12T13:09:51;4.50;;;2.23;;
18738;SDS011;9498;51.862;19.460;2022-09-12T13:12:21;3.07;;;1.60;;
18738;SDS011;9498;51.862;19.460;2022-09-12T13:14:52;2.20;;;1.47;;
18738;SDS011;9498;51.862;19.460;2022-09-12T13:17:30;2.37;;;1.70;;
18738;SDS011;9498;51.862;19.460;2022-09-12T13:20:03;2.33;;;1.47;;
18738;SDS011;9498;51.862;19.460;2022-09-12T13:22:38;2.20;;;1.50;;
18738;SDS011;9498;51.862;19.460;2022-09-12T13:25:23;2.50;;;1.53;;
18738;SDS011;9498;51.862;19.460;2022-09-12T13:28:00;2.67;;;1.53;;
18738;SDS011;9498;51.862;19.460;2022-09-12T13:30:27;3.83;;;1.60;;
18738;SDS011;9498;51.862;19.460;2022-09-12T13:32:56;3.27;;;1.33;;
18738;SDS011;9498;51.862;19.460;2022-09-12T13:35:28;3.43;;;1.60;;
18738;SDS011;9498;51.862;19.460;2022-09-12T13:37:58;3.80;;;1.57;;
18738;SDS011;9498;51.862;19.460;2022-09-12T13:40:30;2.57;;;1.50;;
18738;SDS011;9498;51.862;19.460;2022-09-12T13:43:10;2.40;;;1.50;;
18738;SDS011;9498;51.862;19.460;2022-09-12T13:45:39;2.57;;;1.50;;
18738;SDS011;9498;51.862;19.460;2022-09-12T13:48:09;2.53;;;1.50;;
18738;SDS011;9498;51.862;19.460;2022-09-12T13:50:40;2.30;;;1.50;;
18738;SDS011;9498;51.862;19.460;2022-09-12T13:53:11;6.03;;;1.63;;
18738;SDS011;9498;51.862;19.460;2022-09-12T13:55:40;2.27;;;1.60;;
18738;SDS011;9498;51.862;19.460;2022-09-12T13:58:16;2.30;;;1.40;;
18738;SDS011;9498;51.862;19.460;2022-09-12T14:00:45;2.33;;;1.60;;
18738;SDS011;9498;51.862;19.460;2022-09-12T14:03:24;2.60;;;1.60;;
18738;SDS011;9498;51.862;19.460;2022-09-12T14:06:10;7.13;;;1.67;;
18738;SDS011;9498;51.862;19.460;2022-09-12T14:08:40;2.07;;;1.50;;
18738;SDS011;9498;51.862;19.460;2022-09-12T14:11:07;3.73;;;1.50;;
18738;SDS011;9498;51.862;19.460;2022-09-12T14:13:37;2.00;;;1.40;;
18738;SDS011;9498;51.862;19.460;2022-09-12T14:16:05;3.90;;;1.40;;
18738;SDS011;9498;51.862;19.460;2022-09-12T14:18:34;4.17;;;1.50;;
18738;SDS011;9498;51.862;19.460;2022-09-12T14:21:06;4.97;;;1.70;;
18738;SDS011;9498;51.862;19.460;2022-09-12T14:23:36;2.33;;;1.80;;
18738;SDS011;9498;51.862;19.460;2022-09-12T14:26:05;3.27;;;1.67;;
18738;SDS011;9498;51.862;19.460;2022-09-12T14:28:37;3.83;;;1.60;;
18738;SDS011;9498;51.862;19.460;2022-09-12T14:31:05;3.43;;;1.57;;
18738;SDS011;9498;51.862;19.460;2022-09-12T14:33:44;1.83;;;1.40;;
18738;SDS011;9498;51.862;19.460;2022-09-12T14:36:16;4.60;;;1.50;;
18738;SDS011;9498;51.862;19.460;2022-09-12T14:38:45;4.30;;;1.47;;
18738;SDS011;9498;51.862;19.460;2022-09-12T14:41:19;3.07;;;1.60;;
18738;SDS011;9498;51.862;19.460;2022-09-12T14:43:50;4.23;;;1.70;;
18738;SDS011;9498;51.862;19.460;2022-09-12T14:46:19;3.13;;;1.37;;
18738;SDS011;9498;51.862;19.460;2022-09-12T14:48:50;4.90;;;1.50;;
18738;SDS011;9498;51.862;19.460;2022-09-12T14:51:21;4.97;;;1.57;;
18738;SDS011;9498;51.862;19.460;2022-09-12T14:53:50;2.37;;;1.47;;
18738;SDS011;9498;51.862;19.460;2022-09-12T14:56:19;5.70;;;1.53;;
18738;SDS011;9498;51.862;19.460;2022-09-12T14:58:46;4.00;;;1.50;;
18738;SDS011;9498;51.862;19.460;2022-09-12T15:01:22;2.50;;;1.50;;
18738;SDS011;9498;51.862;19.460;2022-09-12T15:03:51;3.00;;;1.60;;
18738;SDS011;9498;51.862;19.460;2022-09-12T15:06:20;2.77;;;1.60;;
18738;SDS011;9498;51.862;19.460;2022-09-12T15:08:48;4.70;;;1.50;;
18738;SDS011;9498;51.862;19.460;2022-09-12T15:11:15;3.20;;;1.50;;
18738;SDS011;9498;51.862;19.460;2022-09-12T15:13:42;3.80;;;1.63;;
18738;SDS011;9498;51.862;19.460;2022-09-12T15:16:10;3.80;;;1.80;;
18738;SDS011;9498;51.862;19.460;2022-09-12T15:18:39;2.63;;;1.40;;
18738;SDS011;9498;51.862;19.460;2022-09-12T15:21:06;3.00;;;1.50;;
18738;SDS011;9498;51.862;19.460;2022-09-12T15:23:35;2.80;;;1.60;;
18738;SDS011;9498;51.862;19.460;2022-09-12T15:26:04;1.97;;;1.50;;
18738;SDS011;9498;51.862;19.460;2022-09-12T15:28:32;2.77;;;1.80;;
18738;SDS011;9498;51.862;19.460;2022-09-12T15:31:02;4.30;;;1.73;;
18738;SDS011;9498;51.862;19.460;2022-09-12T15:33:30;3.60;;;1.57;;
18738;SDS011;9498;51.862;19.460;2022-09-12T15:35:59;2.63;;;1.70;;